Time;durP1;ratioP1;P1;durP2;ratioP2;P2;SDS_P1;SDS_P2;PMS_P1;PMS_P2;Temp;Humidity;BMP_temperature;BMP_pressure;BME280_temperature;BME280_humidity;BME280_pressure;Samples;Min_cycle;Max_cycle;Signal;HPM_P1;HPM_P2
2022/03/25 00:00:56;;;;;;;25.70;21.58;;;10.80;52.50;;;;;;6000785;23;20233;-88
2022/03/25 00:03:23;;;;;;;24.10;19.13;;;10.70;52.70;;;;;;6005527;23;20280;-86
2022/03/25 00:05:49;;;;;;;21.70;18.98;;;10.60;53.00;;;;;;6001975;23;20253;-86
2022/03/25 00:08:17;;;;;;;23.15;18.83;;;10.60;53.20;;;;;;6001766;23;20287;-88
2022/03/25 00:10:45;;;;;;;23.40;19.52;;;10.50;53.20;;;;;;5993835;23;20546;-87
2022/03/25 00:13:12;;;;;;;22.85;19.38;;;10.50;53.50;;;;;;6002995;23;20190;-87
2022/03/25 00:15:39;;;;;;;23.70;19.90;;;10.40;53.60;;;;;;6001959;23;20301;-87
2022/03/25 00:18:06;;;;;;;22.63;20.13;;;10.40;54.40;;;;;;6002681;23;20304;-87
2022/03/25 00:20:33;;;;;;;24.42;19.85;;;10.40;54.10;;;;;;6000156;23;20193;-87
2022/03/25 00:23:01;;;;;;;23.05;20.60;;;10.30;54.50;;;;;;6001244;23;20228;-87
2022/03/25 00:25:29;;;;;;;22.10;19.42;;;10.30;54.80;;;;;;6001360;23;20289;-87
2022/03/25 00:27:57;;;;;;;23.92;20.67;;;10.20;54.60;;;;;;6001206;23;20200;-87
2022/03/25 00:30:24;;;;;;;24.77;20.67;;;10.20;54.50;;;;;;5998539;23;20193;-87
2022/03/25 00:32:51;;;;;;;24.40;20.95;;;10.20;54.90;;;;;;5999187;23;20210;-87
2022/03/25 00:35:18;;;;;;;25.20;19.95;;;10.10;55.40;;;;;;6002677;23;20308;-88
2022/03/25 00:37:46;;;;;;;27.23;21.67;;;10.10;56.50;;;;;;6002071;23;20232;-87
2022/03/25 00:40:13;;;;;;;25.15;21.08;;;10.00;55.80;;;;;;5995037;23;20207;-88
2022/03/25 00:42:40;;;;;;;22.33;19.63;;;9.90;56.90;;;;;;5996366;23;20710;-86
2022/03/25 00:45:10;;;;;;;22.15;19.33;;;9.80;57.10;;;;;;6003899;23;20235;-87
2022/03/25 00:47:38;;;;;;;21.05;18.50;;;9.70;57.20;;;;;;5997559;23;20197;-87
2022/03/25 00:50:06;;;;;;;23.58;18.73;;;9.60;57.60;;;;;;6003092;23;20225;-88
2022/03/25 00:52:33;;;;;;;23.83;18.98;;;9.50;57.70;;;;;;6000908;23;20205;-89
2022/03/25 00:55:00;;;;;;;23.27;20.08;;;9.40;57.90;;;;;;6004465;23;20219;-87
2022/03/25 00:57:27;;;;;;;26.08;19.75;;;9.40;58.20;;;;;;6000642;23;20191;-89
2022/03/25 00:59:54;;;;;;;22.88;18.67;;;9.20;58.40;;;;;;6004360;23;20193;-88
2022/03/25 01:02:23;;;;;;;21.02;17.95;;;9.20;59.00;;;;;;5998827;23;20295;-88
2022/03/25 01:04:50;;;;;;;19.45;17.40;;;9.10;59.60;;;;;;6001438;23;20295;-89
2022/03/25 01:07:17;;;;;;;20.13;17.90;;;9.00;60.40;;;;;;6000346;23;20279;-87
2022/03/25 01:09:45;;;;;;;20.52;17.38;;;8.80;61.60;;;;;;6003021;23;20662;-87
2022/03/25 01:12:12;;;;;;;20.15;17.38;;;8.60;62.30;;;;;;6000114;23;20190;-88
2022/03/25 01:14:39;;;;;;;20.58;17.45;;;8.40;63.60;;;;;;6004853;23;20206;-88
2022/03/25 01:17:06;;;;;;;24.67;17.50;;;8.20;64.50;;;;;;5996376;23;20798;-87
2022/03/25 01:19:35;;;;;;;19.20;17.17;;;8.20;65.70;;;;;;5997719;23;20256;-88
2022/03/25 01:22:03;;;;;;;17.80;15.90;;;8.10;66.30;;;;;;5998053;23;20797;-88
2022/03/25 01:24:30;;;;;;;19.10;16.23;;;8.10;67.10;;;;;;5999006;23;20543;-88
2022/03/25 01:26:57;;;;;;;16.67;14.98;;;8.00;67.80;;;;;;6001882;23;20194;-83
2022/03/25 01:29:24;;;;;;;18.52;15.73;;;8.00;68.80;;;;;;5997470;23;20195;-86
2022/03/25 01:31:52;;;;;;;18.40;16.08;;;7.90;69.50;;;;;;6000290;23;20523;-86
2022/03/25 01:34:19;;;;;;;17.85;15.90;;;7.80;70.30;;;;;;6002886;23;20238;-86
2022/03/25 01:36:48;;;;;;;18.73;15.52;;;7.80;71.00;;;;;;6000771;23;20198;-86
2022/03/25 01:39:15;;;;;;;18.02;15.77;;;7.70;72.10;;;;;;5999626;23;20261;-86
2022/03/25 01:41:42;;;;;;;16.40;14.70;;;7.70;73.00;;;;;;6002468;23;20568;-86
2022/03/25 01:44:11;;;;;;;22.35;16.70;;;7.60;73.10;;;;;;6004156;23;20210;-86
2022/03/25 01:46:38;;;;;;;18.52;15.63;;;7.60;74.10;;;;;;6002168;23;20198;-86
2022/03/25 01:49:05;;;;;;;18.20;15.90;;;7.60;74.40;;;;;;6001147;23;20277;-89
2022/03/25 01:51:34;;;;;;;19.90;16.27;;;7.60;74.50;;;;;;6002471;23;20190;-89
2022/03/25 01:54:04;;;;;;;18.35;15.40;;;7.60;75.10;;;;;;5993185;23;20256;-86
2022/03/25 01:56:31;;;;;;;23.77;18.25;;;7.60;75.80;;;;;;5993692;23;20214;-87
2022/03/25 01:58:58;;;;;;;20.30;16.70;;;7.60;75.90;;;;;;6001973;23;20236;-87
2022/03/25 02:01:26;;;;;;;21.08;16.58;;;7.60;76.10;;;;;;5995835;23;20317;-89
2022/03/25 02:03:53;;;;;;;18.58;16.58;;;7.60;76.80;;;;;;6002987;23;20373;-88
2022/03/25 02:06:20;;;;;;;17.30;15.50;;;7.60;77.20;;;;;;6002030;23;20256;-89
2022/03/25 02:08:47;;;;;;;18.15;16.25;;;7.60;77.60;;;;;;6002468;23;20668;-89
2022/03/25 02:11:18;;;;;;;21.38;16.25;;;7.60;78.80;;;;;;6002590;23;20269;-87
2022/03/25 02:13:46;;;;;;;20.80;16.17;;;7.60;79.30;;;;;;5996061;23;20221;-87
2022/03/25 02:16:13;;;;;;;18.58;16.35;;;7.50;79.80;;;;;;6001825;23;20214;-87
2022/03/25 02:18:40;;;;;;;19.63;17.17;;;7.50;80.10;;;;;;6005005;23;20226;-87
2022/03/25 02:21:07;;;;;;;18.00;16.05;;;7.40;80.30;;;;;;6028848;23;20190;-87
2022/03/25 02:23:35;;;;;;;20.95;15.98;;;7.40;80.80;;;;;;6026347;23;20554;-87
2022/03/25 02:26:03;;;;;;;18.67;16.73;;;7.30;81.40;;;;;;6006603;23;20247;-87
2022/03/25 02:28:30;;;;;;;18.58;15.90;;;7.30;81.70;;;;;;6004427;23;20329;-87
2022/03/25 02:30:57;;;;;;;22.10;16.90;;;7.40;82.10;;;;;;6002412;23;20222;-88
2022/03/25 02:33:24;;;;;;;19.70;15.82;;;7.30;82.50;;;;;;5994800;23;20213;-87
2022/03/25 02:35:52;;;;;;;19.77;17.42;;;7.30;83.20;;;;;;6000252;23;20196;-87
2022/03/25 02:38:20;;;;;;;22.85;17.50;;;7.30;83.70;;;;;;6002090;23;20304;-87
2022/03/25 02:40:49;;;;;;;18.00;16.08;;;7.20;84.20;;;;;;6000492;23;20225;-87
2022/03/25 02:43:17;;;;;;;17.45;15.02;;;7.10;85.00;;;;;;5998554;23;20669;-87
2022/03/25 02:45:44;;;;;;;19.50;15.75;;;7.00;85.80;;;;;;6001876;23;20197;-87
2022/03/25 02:48:12;;;;;;;17.02;14.52;;;6.90;87.30;;;;;;5997268;23;20196;-87
2022/03/25 02:50:39;;;;;;;20.60;16.05;;;6.80;88.40;;;;;;6002450;23;20193;-87
2022/03/25 02:53:07;;;;;;;20.05;16.20;;;6.80;89.60;;;;;;6003416;23;20265;-86
2022/03/25 02:55:34;;;;;;;18.60;15.75;;;6.70;90.20;;;;;;5998595;23;20210;-87
2022/03/25 02:58:02;;;;;;;19.30;16.05;;;6.70;90.70;;;;;;6002735;23;20736;-86
2022/03/25 03:00:29;;;;;;;19.10;15.10;;;6.70;91.20;;;;;;6003251;23;20202;-86
2022/03/25 03:03:00;;;;;;;15.90;14.30;;;6.60;92.00;;;;;;5999758;23;20285;-86
2022/03/25 03:05:27;;;;;;;18.33;16.42;;;6.60;92.20;;;;;;6003531;23;20964;-87
2022/03/25 03:07:54;;;;;;;17.02;15.18;;;6.50;92.60;;;;;;6000438;23;20198;-86
2022/03/25 03:10:22;;;;;;;19.67;16.52;;;6.50;92.80;;;;;;6002856;23;20200;-87
2022/03/25 03:12:49;;;;;;;17.65;14.98;;;6.50;93.20;;;;;;6001916;23;20318;-87
2022/03/25 03:15:17;;;;;;;19.55;16.50;;;6.50;93.60;;;;;;6003555;23;20283;-87
2022/03/25 03:17:45;;;;;;;18.20;16.30;;;6.50;93.80;;;;;;5997210;23;20248;-87
2022/03/25 03:20:13;;;;;;;20.77;16.50;;;6.40;93.90;;;;;;6000038;23;20226;-86
2022/03/25 03:22:40;;;;;;;20.30;16.02;;;6.40;94.20;;;;;;6001979;23;20209;-87
2022/03/25 03:25:08;;;;;;;18.48;15.38;;;6.50;94.30;;;;;;5999854;23;20234;-86
2022/03/25 03:27:35;;;;;;;18.33;15.60;;;6.40;94.20;;;;;;6003427;23;20222;-86
2022/03/25 03:30:02;;;;;;;20.20;16.33;;;6.50;94.30;;;;;;6001290;23;20288;-87
2022/03/25 03:32:30;;;;;;;18.40;16.05;;;6.50;94.30;;;;;;5997198;23;20643;-87
2022/03/25 03:34:58;;;;;;;19.70;16.58;;;6.50;94.30;;;;;;5998916;23;20217;-87
2022/03/25 03:37:25;;;;;;;19.13;16.50;;;6.50;94.40;;;;;;5999228;23;20249;-86
2022/03/25 03:39:53;;;;;;;20.42;16.23;;;6.50;94.60;;;;;;6001510;23;20287;-86
2022/03/25 03:42:20;;;;;;;18.00;16.08;;;6.50;94.80;;;;;;6000804;23;20273;-87
2022/03/25 03:44:47;;;;;;;18.25;15.65;;;6.40;95.00;;;;;;5999660;23;20364;-87
2022/03/25 03:47:15;;;;;;;22.58;16.70;;;6.40;95.10;;;;;;5998022;23;20649;-86
2022/03/25 03:49:44;;;;;;;21.40;16.77;;;6.40;95.30;;;;;;6000019;23;20278;-86
2022/03/25 03:52:11;;;;;;;19.73;16.85;;;6.40;95.50;;;;;;6003866;23;20272;-86
2022/03/25 03:54:38;;;;;;;17.83;15.93;;;6.30;95.50;;;;;;6002819;23;20210;-86
2022/03/25 03:57:07;;;;;;;21.67;16.60;;;6.30;95.70;;;;;;6003866;23;20204;-86
2022/03/25 03:59:34;;;;;;;18.75;16.05;;;6.30;95.90;;;;;;6002562;23;20308;-86
2022/03/25 04:02:01;;;;;;;20.85;16.45;;;6.30;96.00;;;;;;6002615;23;20704;-87
2022/03/25 04:04:28;;;;;;;18.85;16.80;;;6.20;96.20;;;;;;6002929;23;20210;-87
2022/03/25 04:06:56;;;;;;;19.17;16.10;;;6.20;96.40;;;;;;6003841;23;20194;-87
2022/03/25 04:09:23;;;;;;;18.40;15.55;;;6.10;96.70;;;;;;6005206;23;20222;-86
2022/03/25 04:11:50;;;;;;;19.13;15.68;;;6.10;97.00;;;;;;6004691;23;20554;-87
2022/03/25 04:14:17;;;;;;;21.05;17.20;;;6.00;97.30;;;;;;6007817;23;20261;-87
2022/03/25 04:16:44;;;;;;;22.67;17.00;;;6.00;97.40;;;;;;6021819;23;20534;-86
2022/03/25 04:19:11;;;;;;;19.40;16.15;;;6.00;97.50;;;;;;6004390;23;20226;-86
2022/03/25 04:21:38;;;;;;;18.50;16.02;;;6.00;97.60;;;;;;5999041;23;20642;-87
2022/03/25 04:24:07;;;;;;;17.85;15.60;;;6.00;97.80;;;;;;6002681;23;20234;-87
2022/03/25 04:26:34;;;;;;;23.13;16.95;;;5.90;98.00;;;;;;6004637;23;20194;-87
2022/03/25 04:29:02;;;;;;;17.98;16.05;;;5.90;98.10;;;;;;6003786;23;20194;-87
2022/03/25 04:31:29;;;;;;;20.90;16.13;;;5.90;98.20;;;;;;6001337;23;20191;-86
2022/03/25 04:33:56;;;;;;;19.38;16.25;;;5.80;98.20;;;;;;5996304;23;20221;-86
2022/03/25 04:36:23;;;;;;;18.25;16.33;;;5.80;98.30;;;;;;6003294;23;20882;-86
2022/03/25 04:38:50;;;;;;;17.83;15.73;;;5.70;98.40;;;;;;6000463;23;20245;-88
2022/03/25 04:41:18;;;;;;;21.45;16.85;;;5.70;98.70;;;;;;5999698;23;20190;-87
2022/03/25 04:43:46;;;;;;;22.83;17.38;;;5.60;98.80;;;;;;6003099;23;20305;-87
2022/03/25 04:46:12;;;;;;;17.88;15.95;;;5.60;99.00;;;;;;5996758;23;20190;-88
2022/03/25 04:48:40;;;;;;;21.27;16.30;;;5.60;99.10;;;;;;6004212;23;20198;-87
2022/03/25 04:51:07;;;;;;;18.55;16.52;;;5.50;99.30;;;;;;6000708;23;20263;-88
2022/03/25 04:53:35;;;;;;;20.65;16.45;;;5.50;99.50;;;;;;6003493;23;20216;-87
2022/03/25 04:56:02;;;;;;;19.30;16.88;;;5.40;99.90;;;;;;5997283;23;20194;-88
2022/03/25 04:58:31;;;;;;;20.33;16.67;;;5.30;99.90;;;;;;6003256;23;20205;-87
2022/03/25 05:00:58;;;;;;;21.02;17.98;;;5.20;99.90;;;;;;6003964;23;20276;-88
2022/03/25 05:03:25;;;;;;;21.83;17.35;;;5.10;99.90;;;;;;5999448;23;20292;-86
2022/03/25 05:05:52;;;;;;;21.15;17.13;;;5.10;99.90;;;;;;5997228;23;20189;-81
2022/03/25 05:08:19;;;;;;;18.58;15.30;;;5.00;99.90;;;;;;6002603;23;20649;-86
2022/03/25 05:10:45;;;;;;;21.05;16.80;;;5.00;99.90;;;;;;6003516;23;20269;-87
2022/03/25 05:13:12;;;;;;;20.65;16.65;;;4.90;99.90;;;;;;6004681;23;20201;-87
2022/03/25 05:15:41;;;;;;;19.75;16.88;;;4.90;99.90;;;;;;6015410;23;20186;-88
2022/03/25 05:18:08;;;;;;;18.10;15.90;;;4.80;99.90;;;;;;6017896;23;20206;-83
2022/03/25 05:20:35;;;;;;;20.02;17.88;;;4.70;99.90;;;;;;6004944;23;20222;-87
2022/03/25 05:23:02;;;;;;;19.05;17.05;;;4.70;99.90;;;;;;5998795;23;20190;-77
2022/03/25 05:25:29;;;;;;;20.48;17.65;;;4.60;99.90;;;;;;5999460;23;20550;-78
2022/03/25 05:27:58;;;;;;;22.85;17.60;;;4.60;99.90;;;;;;5994341;23;20191;-81
2022/03/25 05:30:27;;;;;;;22.55;17.63;;;4.60;99.90;;;;;;5998620;23;20720;-80
2022/03/25 05:32:56;;;;;;;19.35;16.33;;;4.50;99.90;;;;;;5999487;23;20198;-80
2022/03/25 05:35:24;;;;;;;21.98;17.98;;;4.50;99.90;;;;;;5999451;23;20216;-74
2022/03/25 05:37:52;;;;;;;19.77;17.42;;;4.50;99.90;;;;;;5997294;23;20194;-79
2022/03/25 05:40:20;;;;;;;22.00;18.45;;;4.50;99.90;;;;;;5990353;23;20245;-77
2022/03/25 05:42:48;;;;;;;18.77;16.83;;;4.60;99.90;;;;;;6002524;23;20240;-79
2022/03/25 05:45:15;;;;;;;20.25;17.90;;;4.60;99.90;;;;;;5995851;23;20186;-79
2022/03/25 05:47:42;;;;;;;20.20;16.92;;;4.60;99.90;;;;;;5988486;23;20256;-79
2022/03/25 05:50:12;;;;;;;21.02;17.17;;;4.70;99.90;;;;;;6001673;23;20209;-78
2022/03/25 05:52:39;;;;;;;17.58;15.68;;;4.70;99.90;;;;;;5993117;23;20218;-79
2022/03/25 05:55:08;;;;;;;21.40;17.83;;;4.80;99.90;;;;;;5998401;23;20218;-79
2022/03/25 05:57:36;;;;;;;20.67;17.15;;;4.80;99.90;;;;;;6000790;23;20190;-80
2022/03/25 06:00:05;;;;;;;18.20;16.30;;;4.90;99.90;;;;;;5992492;23;20206;-80
2022/03/25 06:02:32;;;;;;;25.33;17.50;;;4.90;99.90;;;;;;6001448;23;20269;-80
2022/03/25 06:04:59;;;;;;;22.63;18.58;;;5.00;99.90;;;;;;5999030;23;20305;-79
2022/03/25 06:07:34;;;;;;;20.50;17.90;;;5.00;99.90;;;;;;6001831;23;20736;-80
2022/03/25 06:10:01;;;;;;;20.92;17.80;;;5.00;99.90;;;;;;5997215;23;20198;-80
2022/03/25 06:12:28;;;;;;;19.63;16.50;;;5.00;99.90;;;;;;5995777;23;20546;-79
2022/03/25 06:14:55;;;;;;;21.92;17.10;;;5.10;99.90;;;;;;5988909;23;20853;-80
2022/03/25 06:17:22;;;;;;;19.25;16.40;;;5.10;99.90;;;;;;5998724;23;20708;-78
2022/03/25 06:19:49;;;;;;;19.63;17.60;;;5.30;99.90;;;;;;5994713;23;20681;-80
2022/03/25 06:22:16;;;;;;;18.73;16.70;;;5.40;99.90;;;;;;5994384;23;20194;-79
2022/03/25 06:24:45;;;;;;;18.77;16.35;;;5.70;99.90;;;;;;6001696;23;20233;-79
2022/03/25 06:27:12;;;;;;;21.15;17.17;;;6.00;99.90;;;;;;5998823;23;20672;-79
2022/03/25 06:29:38;;;;;;;19.90;17.75;;;6.30;99.90;;;;;;6002092;23;20186;-80
2022/03/25 06:32:07;;;;;;;18.45;16.45;;;6.60;99.90;;;;;;5993666;23;20520;-79
2022/03/25 06:34:34;;;;;;;19.90;17.80;;;6.90;99.90;;;;;;5996162;23;20281;-82
2022/03/25 06:37:02;;;;;;;19.48;17.38;;;7.20;99.30;;;;;;5974139;23;20217;-81
2022/03/25 06:39:30;;;;;;;21.33;17.30;;;7.50;98.60;;;;;;5989907;23;20266;-81
2022/03/25 06:41:59;;;;;;;19.15;16.98;;;7.80;97.30;;;;;;5997342;23;20183;-80
2022/03/25 06:44:25;;;;;;;20.50;17.67;;;8.10;96.70;;;;;;5985464;23;20201;-81
2022/03/25 06:46:52;;;;;;;21.13;17.70;;;8.30;96.50;;;;;;5987436;23;20274;-78
2022/03/25 06:49:20;;;;;;;19.73;17.42;;;8.60;95.80;;;;;;5994857;23;20183;-78
2022/03/25 06:51:47;;;;;;;21.05;18.10;;;8.80;95.30;;;;;;5991810;23;20207;-78
2022/03/25 06:54:15;;;;;;;20.27;17.77;;;9.20;94.50;;;;;;6001469;23;20211;-81
2022/03/25 06:56:42;;;;;;;19.83;17.73;;;9.50;93.10;;;;;;5990583;23;20191;-79
2022/03/25 06:59:11;;;;;;;20.10;17.20;;;9.70;92.30;;;;;;6000367;23;20191;-79
2022/03/25 07:01:39;;;;;;;21.65;18.38;;;9.80;91.90;;;;;;6002000;23;20517;-81
2022/03/25 07:04:07;;;;;;;21.40;17.90;;;10.00;91.00;;;;;;5996408;23;20260;-78
2022/03/25 07:06:38;;;;;;;20.75;18.27;;;10.40;90.70;;;;;;5994373;23;20184;-81
2022/03/25 07:09:06;;;;;;;23.65;17.92;;;10.90;88.50;;;;;;5995043;23;20195;-79
2022/03/25 07:11:33;;;;;;;19.60;17.70;;;11.20;86.50;;;;;;5987864;23;20221;-78
2022/03/25 07:14:01;;;;;;;20.80;18.05;;;11.50;85.20;;;;;;5990477;23;20205;-79
2022/03/25 07:16:29;;;;;;;20.55;18.45;;;11.70;82.90;;;;;;5999295;23;20182;-79
2022/03/25 07:18:56;;;;;;;19.27;16.95;;;11.70;82.40;;;;;;6002259;23;20259;-79
2022/03/25 07:21:24;;;;;;;21.02;18.45;;;11.80;81.30;;;;;;5996838;23;20652;-79
2022/03/25 07:23:51;;;;;;;21.83;18.55;;;12.00;81.10;;;;;;5996848;23;20214;-79
2022/03/25 07:26:18;;;;;;;21.08;18.98;;;12.30;80.40;;;;;;5988820;23;20210;-79
2022/03/25 07:28:45;;;;;;;20.05;17.80;;;12.70;79.00;;;;;;5987091;23;20194;-79
2022/03/25 07:31:12;;;;;;;20.90;18.67;;;13.10;78.30;;;;;;5997686;23;20244;-79
2022/03/25 07:33:40;;;;;;;20.42;18.27;;;13.50;75.60;;;;;;5995246;23;20725;-78
2022/03/25 07:36:08;;;;;;;20.23;18.23;;;13.70;74.90;;;;;;5992860;23;20673;-79
2022/03/25 07:38:35;;;;;;;20.13;18.08;;;14.00;73.60;;;;;;5990750;23;20182;-79
2022/03/25 07:41:03;;;;;;;20.15;18.10;;;14.10;71.80;;;;;;5987107;23;20214;-79
2022/03/25 07:43:31;;;;;;;21.77;19.13;;;14.20;71.80;;;;;;5997791;23;20211;-80
2022/03/25 07:45:58;;;;;;;20.90;18.90;;;14.40;70.00;;;;;;5993950;23;20186;-80
2022/03/25 07:48:26;;;;;;;22.87;19.90;;;14.50;68.70;;;;;;5986710;23;20183;-80
2022/03/25 07:50:54;;;;;;;21.60;18.90;;;14.50;68.00;;;;;;5993688;23;20443;-80
2022/03/25 07:53:21;;;;;;;21.70;19.40;;;14.70;66.60;;;;;;5996681;23;20540;-79
2022/03/25 07:55:50;;;;;;;20.95;18.73;;;14.70;66.10;;;;;;5989116;23;20798;-80
2022/03/25 07:58:19;;;;;;;21.87;19.50;;;14.90;65.80;;;;;;5997252;23;20232;-79
2022/03/25 08:00:47;;;;;;;21.40;19.40;;;14.80;64.40;;;;;;5987578;23;20613;-80
2022/03/25 08:03:14;;;;;;;22.10;19.70;;;15.00;63.90;;;;;;5986671;23;20505;-81
2022/03/25 08:05:41;;;;;;;27.50;20.00;;;15.30;63.30;;;;;;5994021;23;20438;-81
2022/03/25 08:08:10;;;;;;;21.80;19.70;;;15.70;63.40;;;;;;5993322;23;20570;-76
2022/03/25 08:10:39;;;;;;;21.73;19.63;;;16.20;62.50;;;;;;6000496;23;20467;-80
2022/03/25 08:13:07;;;;;;;22.60;19.60;;;16.50;61.10;;;;;;5990493;23;20455;-79
2022/03/25 08:15:35;;;;;;;21.70;19.57;;;16.60;60.00;;;;;;5985456;23;20448;-80
2022/03/25 08:18:05;;;;;;;21.83;19.47;;;16.80;60.70;;;;;;5995037;23;21034;-80
2022/03/25 08:20:35;;;;;;;22.83;20.63;;;16.90;59.50;;;;;;5992678;23;20465;-82
2022/03/25 08:23:04;;;;;;;22.03;19.60;;;17.30;58.30;;;;;;5992556;23;21017;-80
2022/03/25 08:28:19;;;;;;;22.50;19.67;;;17.80;57.40;;;;;;5991164;23;20460;-79
2022/03/25 08:30:47;;;;;;;21.97;19.77;;;18.10;57.30;;;;;;5995523;23;20456;-79
2022/03/25 08:33:15;;;;;;;23.50;21.20;;;18.50;56.40;;;;;;5992109;23;20984;-80
2022/03/25 08:35:43;;;;;;;22.33;20.00;;;18.70;55.80;;;;;;5981749;23;20433;-79
2022/03/25 08:38:11;;;;;;;23.23;21.03;;;18.90;54.80;;;;;;5991915;23;20571;-79
2022/03/25 08:40:41;;;;;;;22.93;20.57;;;19.00;54.10;;;;;;5985983;23;20907;-79
2022/03/25 08:43:08;;;;;;;23.00;20.73;;;19.00;53.50;;;;;;5992654;23;20457;-79
2022/03/25 08:45:36;;;;;;;22.90;20.70;;;19.10;52.60;;;;;;5988218;23;20523;-79
2022/03/25 08:48:03;;;;;;;22.87;20.47;;;19.60;53.40;;;;;;5989178;23;20507;-80
2022/03/25 08:50:30;;;;;;;25.13;22.67;;;20.10;51.80;;;;;;5995699;23;20531;-80
2022/03/25 08:52:57;;;;;;;23.37;21.10;;;20.70;51.80;;;;;;5996549;23;20553;-82
2022/03/25 08:55:25;;;;;;;23.57;21.27;;;21.20;50.40;;;;;;5995800;23;20476;-80
2022/03/25 08:57:53;;;;;;;24.77;22.47;;;21.60;48.20;;;;;;5990041;23;20455;-80
2022/03/25 09:00:20;;;;;;;25.37;22.77;;;21.80;48.40;;;;;;5998434;23;20488;-81
2022/03/25 09:02:48;;;;;;;24.23;21.73;;;21.50;48.90;;;;;;5997908;23;20453;-81
2022/03/25 09:05:16;;;;;;;23.57;21.27;;;21.90;48.80;;;;;;5999057;23;20437;-81
2022/03/25 09:07:43;;;;;;;25.30;22.97;;;22.50;47.30;;;;;;5991903;23;20841;-81
2022/03/25 09:10:14;;;;;;;23.60;21.33;;;23.10;46.40;;;;;;5995730;23;20463;-79
2022/03/25 09:12:42;;;;;;;24.33;21.93;;;22.70;46.20;;;;;;5998225;23;20457;-79
2022/03/25 09:15:13;;;;;;;24.80;22.40;;;22.90;46.40;;;;;;5996730;23;20503;-79
2022/03/25 09:17:41;;;;;;;25.53;23.20;;;23.30;46.20;;;;;;5997617;23;20445;-79
2022/03/25 09:20:09;;;;;;;25.43;23.00;;;23.70;45.30;;;;;;5998612;23;20556;-79
2022/03/25 09:22:36;;;;;;;25.60;23.00;;;23.40;44.60;;;;;;5997153;23;20467;-79
2022/03/25 09:25:06;;;;;;;25.50;22.97;;;23.40;45.60;;;;;;5990797;23;20448;-79
2022/03/25 09:27:33;;;;;;;25.47;22.97;;;23.50;44.80;;;;;;5996517;23;20449;-79
2022/03/25 09:30:00;;;;;;;25.00;22.57;;;23.60;44.70;;;;;;5993255;23;20433;-81
2022/03/25 09:32:29;;;;;;;26.60;24.00;;;23.60;44.30;;;;;;5987134;23;20482;-79
2022/03/25 09:35:13;;;;;;;26.40;24.00;;;23.80;44.20;;;;;;5994770;23;20537;-79
2022/03/25 09:37:42;;;;;;;26.03;23.60;;;24.20;44.10;;;;;;5996977;23;20512;-79
2022/03/25 09:40:12;;;;;;;27.20;24.50;;;24.60;43.60;;;;;;5993703;23;20495;-79
2022/03/25 09:42:40;;;;;;;25.47;23.00;;;25.30;43.10;;;;;;5994973;23;20481;-79
2022/03/25 09:45:09;;;;;;;25.93;23.57;;;25.50;42.40;;;;;;5996062;23;20499;-79
2022/03/25 09:47:38;;;;;;;26.03;23.57;;;25.80;41.50;;;;;;5983775;23;20446;-79
2022/03/25 09:50:16;;;;;;;27.50;24.90;;;26.40;40.60;;;;;;5996131;23;20441;-79
2022/03/25 09:52:44;;;;;;;27.80;24.93;;;26.40;39.90;;;;;;5994850;23;20583;-80
2022/03/25 09:55:13;;;;;;;26.47;23.97;;;26.60;40.10;;;;;;5985942;23;20896;-80
2022/03/25 09:57:41;;;;;;;27.83;25.30;;;26.70;39.70;;;;;;5998020;23;20652;-79
2022/03/25 10:00:12;;;;;;;27.50;24.80;;;26.60;38.70;;;;;;5994030;23;20445;-80
2022/03/25 10:02:40;;;;;;;26.83;24.10;;;26.40;39.60;;;;;;5994395;23;20476;-80
2022/03/25 10:05:16;;;;;;;28.50;25.90;;;26.40;39.60;;;;;;5997046;23;20444;-80
2022/03/25 10:07:45;;;;;;;28.67;25.70;;;25.80;38.50;;;;;;5999261;23;20507;-81
2022/03/25 10:10:14;;;;;;;26.60;23.97;;;25.40;38.70;;;;;;5999391;23;20444;-80
2022/03/25 10:12:44;;;;;;;27.40;24.70;;;25.20;38.70;;;;;;5994177;23;20458;-80
2022/03/25 10:15:20;;;;;;;25.77;23.37;;;25.50;38.70;;;;;;5987458;23;22284;-81
2022/03/25 10:17:55;;;;;;;25.10;22.53;;;25.60;37.60;;;;;;5997934;23;20516;-81
2022/03/25 10:20:24;;;;;;;26.33;24.00;;;26.30;37.00;;;;;;5988636;23;20440;-81
2022/03/25 10:22:59;;;;;;;24.47;22.27;;;26.90;36.20;;;;;;5993613;23;20481;-81
2022/03/25 10:25:37;;;;;;;25.33;22.93;;;27.20;36.10;;;;;;5990339;23;21121;-80
2022/03/25 10:28:06;;;;;;;25.90;23.70;;;27.50;35.70;;;;;;5986915;23;20512;-81
2022/03/25 10:30:41;;;;;;;25.40;23.10;;;27.80;35.80;;;;;;5991720;23;20468;-81
2022/03/25 10:33:12;;;;;;;26.40;23.90;;;28.10;35.30;;;;;;5989871;23;21075;-81
2022/03/25 10:35:55;;;;;;;26.27;23.73;;;28.50;34.40;;;;;;5989008;23;20445;-81
2022/03/25 10:38:23;;;;;;;24.90;22.50;;;28.40;34.50;;;;;;5993106;23;20472;-81
2022/03/25 10:40:51;;;;;;;24.73;22.53;;;28.10;34.10;;;;;;5997239;23;21037;-80
2022/03/25 10:43:18;;;;;;;25.37;23.17;;;28.10;34.10;;;;;;5992430;23;20914;-81
2022/03/25 10:45:46;;;;;;;25.43;23.23;;;27.80;34.70;;;;;;5988723;23;20966;-81
2022/03/25 10:48:17;;;;;;;25.40;23.10;;;28.00;35.00;;;;;;5995051;23;20504;-81
2022/03/25 10:51:04;;;;;;;24.90;22.60;;;27.70;34.60;;;;;;5991211;23;20452;-81
2022/03/25 10:53:34;;;;;;;24.60;22.30;;;27.30;35.50;;;;;;5996349;23;20535;-81
2022/03/25 10:56:03;;;;;;;24.90;22.70;;;27.50;35.50;;;;;;5993413;23;20536;-82
2022/03/25 10:58:30;;;;;;;24.70;22.50;;;28.10;34.20;;;;;;5989018;23;20488;-81
2022/03/25 11:00:58;;;;;;;24.70;22.60;;;28.70;33.90;;;;;;6001624;23;20471;-85
2022/03/25 11:03:27;;;;;;;28.10;25.60;;;29.10;33.60;;;;;;6007237;23;20457;-81
2022/03/25 11:05:55;;;;;;;25.53;23.20;;;28.10;33.20;;;;;;5993098;23;20448;-81
2022/03/25 11:08:22;;;;;;;25.80;23.43;;;27.00;33.90;;;;;;6005627;23;20608;-82
2022/03/25 11:10:49;;;;;;;26.87;24.23;;;25.90;35.10;;;;;;5998752;23;20444;-83
2022/03/25 11:13:18;;;;;;;25.00;22.50;;;25.80;36.10;;;;;;5994960;23;20477;-81
2022/03/25 11:15:46;;;;;;;25.23;22.77;;;26.00;36.00;;;;;;5996669;23;20975;-81
2022/03/25 11:18:14;;;;;;;22.70;20.70;;;26.60;35.40;;;;;;5996900;23;20497;-82
2022/03/25 11:20:43;;;;;;;24.80;22.63;;;27.20;34.70;;;;;;5993205;23;20569;-82
2022/03/25 11:23:14;;;;;;;23.97;21.97;;;27.80;34.10;;;;;;5994696;23;20552;-82
2022/03/25 11:25:44;;;;;;;23.90;21.80;;;28.50;32.90;;;;;;5992015;23;20451;-82
2022/03/25 11:28:16;;;;;;;24.23;22.23;;;28.60;33.20;;;;;;5998787;23;20453;-83
2022/03/25 11:30:43;;;;;;;27.97;25.67;;;29.10;33.40;;;;;;5995627;23;20453;-83
2022/03/25 11:33:11;;;;;;;23.67;21.57;;;28.90;31.90;;;;;;6000379;23;20553;-82
2022/03/25 11:35:39;;;;;;;27.47;24.93;;;28.90;32.90;;;;;;5994666;23;20446;-82
2022/03/25 11:38:22;;;;;;;21.53;19.63;;;29.20;32.70;;;;;;5996141;23;20560;-83
2022/03/25 11:40:52;;;;;;;23.20;21.20;;;29.20;34.40;;;;;;5993603;23;21003;-77
2022/03/25 11:43:21;;;;;;;24.30;22.07;;;29.50;33.70;;;;;;5978724;23;20464;-77
2022/03/25 11:46:04;;;;;;;27.77;25.27;;;28.60;34.00;;;;;;5995875;23;20508;-77
2022/03/25 11:48:46;;;;;;;27.00;24.60;;;28.10;33.80;;;;;;5991529;23;22028;-84
2022/03/25 11:51:33;;;;;;;25.87;23.57;;;28.40;34.30;;;;;;5994328;23;20487;-85
2022/03/25 11:54:04;;;;;;;27.13;24.53;;;28.60;33.50;;;;;;5984409;23;20437;-85
2022/03/25 11:56:52;;;;;;;26.80;24.50;;;28.90;32.80;;;;;;5987065;23;20444;-84
2022/03/25 11:59:20;;;;;;;26.50;23.90;;;29.40;32.70;;;;;;5980199;23;20528;-84
2022/03/25 12:01:47;;;;;;;27.30;24.80;;;29.80;32.30;;;;;;5996695;23;20515;-85
2022/03/25 12:04:33;;;;;;;27.47;24.97;;;29.80;32.30;;;;;;6003717;23;20457;-85
2022/03/25 12:07:03;;;;;;;24.23;22.20;;;29.80;32.50;;;;;;5987556;23;20469;-84
2022/03/25 12:09:39;;;;;;;24.93;22.70;;;29.90;31.50;;;;;;6003098;23;20449;-85
2022/03/25 12:12:08;;;;;;;26.67;24.47;;;30.20;31.20;;;;;;5991863;23;20462;-85
2022/03/25 12:14:36;;;;;;;27.10;24.80;;;30.60;32.00;;;;;;5995615;23;20524;-84
2022/03/25 12:17:07;;;;;;;27.13;24.70;;;31.00;32.10;;;;;;5998555;23;20441;-83
2022/03/25 12:19:45;;;;;;;27.87;25.33;;;31.40;32.30;;;;;;5989371;23;20498;-85
2022/03/25 12:22:33;;;;;;;25.13;23.03;;;31.60;32.00;;;;;;5993994;23;20547;-90
2022/03/25 12:25:10;;;;;;;27.63;25.33;;;31.60;30.10;;;;;;5994507;23;20438;-91
2022/03/25 12:27:38;;;;;;;26.60;24.30;;;31.30;29.90;;;;;;5993198;23;20445;-91
2022/03/25 12:30:06;;;;;;;26.97;24.67;;;31.30;30.00;;;;;;5994274;23;20525;-91
2022/03/25 12:32:35;;;;;;;26.57;24.37;;;31.10;30.00;;;;;;6001839;23;20485;-92
2022/03/25 12:35:05;;;;;;;27.80;25.50;;;31.00;30.90;;;;;;5997100;23;20525;-91
2022/03/25 12:37:38;;;;;;;27.23;24.80;;;30.30;30.20;;;;;;5997537;23;20434;-91
2022/03/25 12:40:14;;;;;;;27.47;25.17;;;29.20;32.00;;;;;;5992526;23;20441;-88